Latest Weather Observations for Parafield

IDS60901

Issued at 5:41 pm CST Wednesday 26 June 2019 (issued every 10 minutes, with the page automatically refreshed every 10 minutes)

About weather observations | Map of Adelaide area stations | Latest observations for Adelaide area | Other Formats
Station Details ID: 023013 Name: PARAFIELD AIRPORT Lat: -34.80 Lon: 138.63 Height: 9.5 m
Data from the previous 72 hours. | See also: Recent months at Parafield
Date/Time
CST
Temp
°C
App
Temp
°C
Dew
Point
°C
Rel
Hum
%
Delta-T
°C
Wind Press
QNH
hPa
Press
MSL
hPa
Rain since
9am
mm
Dir  Spd
km/h
Gust
km/h
Spd
kts
Gust
kts
26/05:30pm 14.1 11.9 5.2 55 4.1 N 6 7 3 4 1027.4 1027.4 0.0
26/05:00pm 15.7 12.7 5.9 52 4.7 N 11 13 6 7 1027.4 1027.4 0.0
26/04:30pm 17.0 14.0 5.9 48 5.4 N 11 17 6 9 1027.5 1027.5 0.0
26/04:00pm 18.1 14.1 5.0 42 6.3 N 15 20 8 11 1027.5 1027.5 0.0
26/03:30pm 18.6 13.7 4.0 38 6.9 N 19 22 10 12 1027.6 1027.6 0.0
26/03:00pm 19.0 14.4 5.8 42 6.5 N 19 26 10 14 1027.6 1027.6 0.0
26/02:30pm 18.9 14.2 6.1 43 6.3 N 20 30 11 16 1027.9 1027.9 0.0
26/02:00pm 18.9 13.9 4.7 39 6.8 N 20 32 11 17 1028.2 1028.2 0.0
26/01:30pm 19.1 14.2 5.2 40 6.7 NNW 20 32 11 17 1028.5 1028.5 0.0
26/01:00pm 18.8 13.2 5.6 42 6.5 NNW 24 32 13 17 1029.0 1029.0 0.0
26/12:30pm 18.6 14.0 5.5 42 6.3 NNE 19 26 10 14 1029.6 1029.6 0.0
26/12:00pm 18.2 13.7 7.0 48 5.6 N 20 30 11 16 1030.3 1030.3 0.0
26/11:30am 17.6 12.4 7.4 51 5.1 NNE 24 33 13 18 1030.8 1030.8 0.0
26/11:00am 17.0 12.5 7.1 52 4.9 N 20 28 11 15 1031.2 1031.2 0.0
26/10:30am 16.5 11.9 6.6 52 4.8 NNE 20 32 11 17 1031.3 1031.3 0.0
26/10:00am 16.1 11.1 6.5 53 4.7 NNE 22 28 12 15 1031.5 1031.5 0.0
26/09:30am 15.1 10.5 6.7 57 4.1 NE 20 28 11 15 1031.4 1031.4 0.0
26/09:00am 13.9 10.4 7.2 64 3.2 NE 15 19 8 10 1031.4 1031.4 0.0
26/08:30am 12.2 9.0 6.7 69 2.6 NE 13 17 7 9 1031.3 1031.3 0.0
26/08:00am 11.1 7.3 6.0 71 2.4 NE 15 19 8 10 1031.0 1031.0 0.0
26/07:30am 10.0 5.9 6.0 76 1.8 NE 17 20 9 11 1030.7 1030.7 0.0
26/07:00am 9.4 5.0 5.0 74 2.0 NE 17 20 9 11 1030.5 1030.5 0.0
26/06:30am 10.5 6.3 5.9 73 2.1 NE 17 20 9 11 1030.4 1030.4 0.0
26/06:00am 10.1 5.8 5.3 72 2.2 NE 17 20 9 11 1030.3 1030.3 0.0
26/05:30am 10.2 5.9 5.4 72 2.2 NE 17 20 9 11 1030.1 1030.1 0.0
26/05:00am 9.9 5.5 4.9 71 2.2 NE 17 19 9 10 1029.9 1029.9 0.0
26/04:30am 9.6 5.6 4.8 72 2.1 NE 15 19 8 10 1030.0 1030.0 0.0
26/04:00am 8.2 4.4 4.0 75 1.8 NNE 13 15 7 8 1030.0 1030.0 0.0
26/03:30am 8.0 4.2 3.7 74 1.8 NNE 13 19 7 10 1030.0 1030.0 0.0
26/03:00am 8.8 4.9 3.2 68 2.4 NNE 13 17 7 9 1030.1 1030.1 0.0
26/02:30am 9.9 5.5 4.5 69 2.4 NE 17 20 9 11 1030.2 1030.2 0.0
26/02:00am 8.5 3.9 3.6 71 2.1 NE 17 17 9 9 1030.3 1030.3 0.0
26/01:30am 8.4 4.3 2.2 65 2.6 NE 13 15 7 8 1030.5 1030.5 0.0
26/01:00am 8.4 4.1 3.5 71 2.1 NE 15 17 8 9 1030.5 1030.5 0.0
26/12:47am 7.5 3.9 4.8 83 1.2 NE 13 17 7 9 1030.6 1030.6 0.0
26/12:30am 2.2 -1.4 0.7 90 0.6 NE 9 13 5 7 1030.8 1030.8 0.0
26/12:00am 2.9 1.3 2.2 95 0.3 CALM 0 0 0 0 1031.0 1031.0 0.0
 
Date/Time
CST
Temp
°C
App
Temp
°C
Dew
Point
°C
Rel
Hum
%
Delta-T
°C
Wind Press
QNH
hPa
Press
MSL
hPa
Rain since
9am
mm
Dir  Spd
km/h
Gust
km/h
Spd
kts
Gust
kts
25/11:30pm 2.7 0.9 1.2 90 0.6 CALM 0 0 0 0 1031.2 1031.2 0.0
25/11:00pm 3.9 2.2 2.1 88 0.7 CALM 0 0 0 0 1031.2 1031.2 0.0
25/10:30pm 4.2 2.6 2.2 87 0.8 CALM 0 0 0 0 1031.3 1031.3 0.0
25/10:00pm 4.4 2.8 2.3 86 0.8 CALM 0 0 0 0 1031.4 1031.4 0.0
25/09:30pm 5.3 3.7 2.7 83 1.1 CALM 0 0 0 0 1031.3 1031.3 0.0
25/09:00pm 5.3 3.6 2.1 80 1.3 CALM 0 0 0 0 1031.2 1031.2 0.0
25/08:30pm 6.1 3.3 2.2 76 1.6 ENE 6 9 3 5 1031.1 1031.1 0.0
25/08:00pm 7.6 5.0 3.1 73 1.9 NE 6 7 3 4 1031.0 1031.0 0.0
25/07:30pm 6.6 3.2 2.1 73 1.8 NE 9 13 5 7 1030.9 1030.9 0.0
25/07:00pm 8.6 6.0 3.4 70 2.2 NE 6 9 3 5 1030.7 1030.7 0.0
25/06:30pm 8.9 6.4 3.9 71 2.2 E 6 7 3 4 1030.5 1030.5 0.0
25/06:00pm 10.4 8.3 3.9 64 2.8 SE 4 7 2 4 1030.2 1030.2 0.0
25/05:30pm 11.1 9.1 2.4 55 3.7 W 2 6 1 3 1030.0 1030.0 0.0
25/05:00pm 14.3 11.6 2.5 45 5.2 WSW 6 7 3 4 1029.9 1029.9 0.0
25/04:30pm 14.6 11.1 3.7 48 4.9 WNW 11 13 6 7 1029.8 1029.8 0.0
25/04:00pm 16.5 13.8 2.5 39 6.3 NW 6 9 3 5 1029.7 1029.7 0.0
25/03:30pm 16.2 12.6 2.9 41 6.0 WNW 11 15 6 8 1029.8 1029.8 0.0
25/03:00pm 16.4 12.1 3.5 42 5.9 WNW 15 20 8 11 1029.7 1029.7 0.0
25/02:30pm 16.6 12.3 1.1 35 6.7 N 13 17 7 9 1029.6 1029.6 0.0
25/02:00pm 16.7 13.0 2.3 38 6.5 N 11 15 6 8 1029.7 1029.7 0.0
25/01:30pm 16.4 11.6 0.5 34 6.8 NNW 15 22 8 12 1029.8 1029.8 0.0
25/01:00pm 16.4 12.4 0.5 34 6.9 NNE 11 17 6 9 1030.0 1030.0 0.0
25/12:30pm 16.0 11.5 2.4 40 6.0 NNE 15 20 8 11 1030.3 1030.3 0.0
25/12:00pm 15.8 11.1 0.8 36 6.4 N 15 20 8 11 1030.7 1030.7 0.0
25/11:30am 15.1 10.6 2.3 42 5.6 NNE 15 20 8 11 1031.2 1031.2 0.0
25/11:00am 14.6 10.3 1.2 40 5.8 N 13 17 7 9 1031.5 1031.5 0.0
25/10:30am 14.0 10.1 1.0 41 5.5 N 11 15 6 8 1031.4 1031.4 0.0
25/10:00am 13.1 9.4 2.4 48 4.7 NNE 11 13 6 7 1031.5 1031.5 0.0
25/09:30am 12.5 9.5 2.1 49 4.4 NNE 7 9 4 5 1031.4 1031.4 0.0
25/09:00am 10.7 6.6 2.3 56 3.6 NE 13 15 7 8 1031.0 1031.0 0.0
25/08:30am 8.6 7.3 4.2 74 1.9 CALM 0 6 0 3 1030.9 1030.9 0.0
25/08:00am 5.8 1.6 1.5 74 1.7 NE 13 13 7 7 1030.4 1030.4 0.0
25/07:30am 6.1 2.5 0.9 69 2.0 NNE 9 11 5 6 1030.3 1030.3 0.0
25/07:00am 4.8 0.4 0.6 74 1.6 NE 13 15 7 8 1030.0 1030.0 0.0
25/06:30am 6.0 2.4 0.6 68 2.1 NE 9 11 5 6 1029.9 1029.9 0.0
25/06:00am 6.0 2.0 0.6 68 2.1 NE 11 11 6 6 1029.7 1029.7 0.0
25/05:30am 7.2 3.3 0.9 64 2.5 NNE 11 13 6 7 1029.6 1029.6 0.0
25/05:00am 8.6 3.9 0.8 58 3.1 NNE 15 17 8 9 1029.1 1029.1 0.0
25/04:30am 9.5 4.4 0.7 54 3.5 NNE 17 20 9 11 1029.1 1029.1 0.0
25/04:00am 10.3 6.0 0.9 52 3.9 NNE 13 20 7 11 1029.1 1029.1 0.0
25/03:30am 10.2 5.9 1.1 53 3.7 N 13 15 7 8 1028.9 1028.9 0.0
25/03:00am 11.0 5.9 0.7 49 4.2 NNE 17 24 9 13 1028.6 1028.6 0.0
25/02:30am 10.9 5.3 0.9 50 4.1 NE 20 26 11 14 1028.4 1028.4 0.0
25/02:00am 10.7 5.1 1.0 51 4.0 NNE 20 28 11 15 1028.5 1028.5 0.0
25/01:30am 10.0 5.4 1.6 56 3.5 NE 15 19 8 10 1028.6 1028.6 0.0
25/01:00am 10.3 5.3 1.4 54 3.7 NNE 17 20 9 11 1029.0 1029.0 0.0
25/12:30am 10.4 4.8 1.5 54 3.7 NE 20 28 11 15 1029.0 1029.0 0.0
25/12:00am 9.8 4.3 1.7 57 3.3 NE 20 26 11 14 1029.1 1029.1 0.0
 
Date/Time
CST
Temp
°C
App
Temp
°C
Dew
Point
°C
Rel
Hum
%
Delta-T
°C
Wind Press
QNH
hPa
Press
MSL
hPa
Rain since
9am
mm
Dir  Spd
km/h
Gust
km/h
Spd
kts
Gust
kts
24/11:30pm 9.2 4.3 1.9 60 3.0 NNE 17 20 9 11 1029.6 1029.6 0.0
24/11:00pm 9.6 4.7 2.0 59 3.2 NNE 17 20 9 11 1029.5 1029.5 0.0
24/10:30pm 8.9 4.8 2.3 63 2.7 N 13 15 7 8 1029.5 1029.5 0.0
24/10:00pm 8.4 4.7 2.2 65 2.6 N 11 13 6 7 1029.3 1029.3 0.0
24/09:30pm 8.1 4.1 2.6 68 2.3 N 13 15 7 8 1029.2 1029.2 0.0
24/09:00pm 8.0 4.3 2.3 67 2.3 NNE 11 13 6 7 1029.0 1029.0 0.0
24/08:30pm 8.8 4.6 1.7 61 2.9 NNE 13 17 7 9 1028.9 1028.9 0.0
24/08:00pm 9.5 5.3 1.7 58 3.2 N 13 17 7 9 1029.0 1029.0 0.0
24/07:30pm 9.6 5.8 1.5 57 3.3 N 11 15 6 8 1028.9 1028.9 0.0
24/07:00pm 9.7 5.5 1.6 57 3.4 NE 13 17 7 9 1028.4 1028.4 0.0
24/06:30pm 9.5 4.6 1.7 58 3.2 NE 17 22 9 12 1028.2 1028.2 0.0
24/06:00pm 10.2 5.6 1.3 54 3.7 NNE 15 20 8 11 1028.1 1028.1 0.0
24/05:30pm 10.1 5.4 1.2 54 3.7 NE 15 20 8 11 1027.6 1027.6 0.0
24/05:00pm 10.0 6.2 1.9 57 3.4 NNE 11 17 6 9 1027.5 1027.5 0.0
24/04:30pm 10.8 5.8 1.1 51 4.0 NE 17 20 9 11 1027.2 1027.2 0.0
24/04:00pm 11.1 5.7 1.1 50 4.2 NNE 19 24 10 13 1027.1 1027.1 0.0
24/03:30pm 11.5 5.9 1.2 49 4.3 NE 20 26 11 14 1027.4 1027.4 0.0
24/03:00pm 11.5 6.3 2.3 53 3.9 NNE 19 28 10 15 1027.4 1027.4 0.0
24/02:30pm 11.4 6.1 1.9 52 4.0 NE 19 24 10 13 1027.8 1027.8 0.0
24/02:00pm 11.2 5.8 1.5 51 4.1 NE 19 26 10 14 1028.2 1028.2 0.0
24/01:30pm 10.9 5.4 0.9 50 4.1 NE 19 24 10 13 1028.5 1028.5 0.0
24/01:00pm 10.8 4.9 1.9 54 3.8 NNE 22 30 12 16 1029.0 1029.0 0.0
24/12:30pm 10.8 6.1 3.1 59 3.3 N 17 24 9 13 1029.5 1029.5 0.0
24/12:00pm 10.5 6.0 2.1 56 3.5 NNE 15 20 8 11 1029.8 1029.8 0.0
24/11:30am 9.3 5.9 1.7 59 3.1 NNE 9 13 5 7 1030.5 1030.5 0.0
24/11:00am 8.6 4.9 2.2 64 2.7 N 11 15 6 8 1031.0 1031.0 0.0
24/10:30am 7.7 4.5 2.8 71 2.0 NNE 9 15 5 8 1031.0 1031.0 0.0
24/10:00am 7.3 3.7 3.2 75 1.7 ENE 11 13 6 7 1031.1 1031.1 0.0
24/09:30am 6.4 3.2 3.2 80 1.3 NE 9 11 5 6 1031.3 1031.3 0.0
24/09:00am 4.9 2.2 3.6 91 0.5 ENE 7 11 4 6 1031.3 1031.3 0.0
24/08:30am 1.7 -0.1 1.4 98 0.1 CALM 0 0 0 0 1030.9 1030.9 0.0
24/08:00am -0.1 -2.9 -0.2 99 0.0 ESE 4 7 2 4 1030.4 1030.4 0.0
24/07:30am -1.6 -4.6 -1.9 98 0.0 WNW 4 11 2 6 1030.3 1030.3 0.0
24/07:00am -1.7 -5.7 -2.5 94 0.2 NNW 9 13 5 7 1029.9 1029.9 0.0
24/06:30am 0.0 -2.4 -0.3 98 0.1 NE 2 6 1 3 1029.6 1029.6 0.0
24/06:00am -0.7 -5.0 -1.7 93 0.3 ENE 11 11 6 6 1029.7 1029.7 0.0
24/05:30am 1.5 -0.5 -0.4 87 0.7 CALM 0 0 0 0 1030.2 1030.2 0.0
24/05:00am 0.2 -3.4 -2.3 83 0.9 ENE 7 7 4 4 1030.1 1030.1 0.0
24/04:30am 3.8 0.5 0.3 78 1.3 ENE 7 9 4 5 1030.0 1030.0 0.0
24/04:00am 4.5 1.0 1.5 81 1.2 NNE 9 15 5 8 1030.0 1030.0 0.0
24/03:30am 5.4 1.8 0.6 71 1.8 NNE 9 11 5 6 1029.8 1029.8 0.0
24/03:00am 4.2 -1.5 0.5 77 1.4 ENE 20 24 11 13 1029.7 1029.7 0.0
24/02:30am 3.0 -1.5 -0.3 79 1.2 ENE 13 17 7 9 1029.7 1029.7 0.0
24/02:00am -0.1 -3.0 -0.9 94 0.3 NE 4 9 2 5 1029.8 1029.8 0.0
24/01:30am 0.0 -3.6 -1.9 87 0.6 N 7 9 4 5 1029.6 1029.6 0.0
24/01:00am 1.6 -1.8 -0.3 87 0.7 NNE 7 9 4 5 1030.0 1030.0 0.0
24/12:30am 1.6 -1.6 -0.5 86 0.7 NW 6 7 3 4 1030.4 1030.4 0.0
24/12:00am 2.2 -1.1 -0.1 85 0.8 N 7 9 4 5 1030.5 1030.5 0.0
 
Date/Time
CST
Temp
°C
App
Temp
°C
Dew
Point
°C
Rel
Hum
%
Delta-T
°C
Wind Press
QNH
hPa
Press
MSL
hPa
Rain since
9am
mm
Dir  Spd
km/h
Gust
km/h
Spd
kts
Gust
kts
23/11:30pm 3.2 1.2 -0.1 79 1.2 CALM 0 0 0 0 1030.9 1030.9 0.0
23/11:00pm 2.9 1.0 0.6 85 0.9 CALM 0 0 0 0 1030.9 1030.9 0.0
23/10:30pm 2.9 0.9 0.1 82 1.0 CALM 0 0 0 0 1030.9 1030.9 0.0
23/10:00pm 2.4 0.4 -0.2 83 1.0 CALM 0 0 0 0 1030.9 1030.9 0.0
23/09:30pm 2.4 0.4 -0.4 82 1.0 CALM 0 0 0 0 1030.9 1030.9 0.0
23/09:00pm 2.9 0.7 -1.6 72 1.6 CALM 0 0 0 0 1030.9 1030.9 0.0
23/08:30pm 3.8 0.6 -0.4 74 1.5 ENE 6 7 3 4 1030.8 1030.8 0.0
23/08:00pm 5.1 2.4 0.1 70 1.9 NE 4 7 2 4 1030.9 1030.9 0.0
23/07:30pm 4.8 1.5 0.0 71 1.8 NE 7 7 4 4 1030.8 1030.8 0.0
23/07:00pm 5.2 1.9 0.2 70 1.9 NE 7 9 4 5 1030.5 1030.5 0.0
23/06:30pm 5.9 2.2 0.0 66 2.2 E 9 11 5 6 1030.2 1030.2 0.0
23/06:00pm 5.6 1.5 -0.4 65 2.3 ESE 11 13 6 7 1030.3 1030.3 0.0

Latest Capital City Observations: Canberra | Sydney | Melbourne | Brisbane | Adelaide | Perth | Hobart | Darwin

Other formats

Comma delimited format used in spreadsheet applications
http://www.bom.gov.au/fwo/IDS60901/IDS60901.95677.axf

JavaScript Object Notation format (JSON) in row-major order
http://www.bom.gov.au/fwo/IDS60901/IDS60901.95677.json

Data quality

Most of these data are generated automatically and are frequently updated. Quality checks on data are not normally performed. It is possible for incorrect values to appear. Refer to information at About Latest Weather Observations and please check the disclaimer before using these data.